createdAt,value
2018-12-19T00:03:03.552Z,90.51
2018-12-19T00:08:07.171Z,90.33
2018-12-19T00:13:14.769Z,90.62
2018-12-19T00:18:18.293Z,90.11
2018-12-19T00:23:21.720Z,90.28
2018-12-19T00:28:25.324Z,90.22
2018-12-19T00:33:28.780Z,90.47
2018-12-19T00:38:32.186Z,90.28
2018-12-19T00:43:35.876Z,88.99
2018-12-19T00:48:39.431Z,89.01
2018-12-19T00:53:43.108Z,88.85
2018-12-19T00:58:46.549Z,89.99
2018-12-19T01:03:50.024Z,88.93
2018-12-19T01:08:54.059Z,89.06
2018-12-19T01:13:57.519Z,88.47
2018-12-19T01:19:01.094Z,88.61
2018-12-19T01:24:04.908Z,88.96
2018-12-19T01:29:08.525Z,87.64
2018-12-19T01:34:13.257Z,88.44
2018-12-19T01:39:22.350Z,88.69
2018-12-19T01:44:22.544Z,88.58
2018-12-19T01:49:26.073Z,88.23
2018-12-19T01:54:29.567Z,88.82
2018-12-19T01:59:33.032Z,87.96
2018-12-19T02:04:36.447Z,88.43
2018-12-19T02:09:39.953Z,88.47
2018-12-19T02:14:43.360Z,87.46
2018-12-19T02:19:47.053Z,87.84
2018-12-19T02:24:50.728Z,88.21
2018-12-19T02:29:54.376Z,88.38
2018-12-19T02:34:57.813Z,88.13
2018-12-19T02:40:01.253Z,87.39
2018-12-19T02:45:05.064Z,88.06
2018-12-19T02:50:08.663Z,88.49
2018-12-19T02:55:12.261Z,87.86
2018-12-19T03:00:15.688Z,88.74
2018-12-19T03:05:19.292Z,88.42
2018-12-19T03:10:22.704Z,88.94
2018-12-19T03:15:26.227Z,88.60
2018-12-19T03:20:30.088Z,89.02
2018-12-19T03:25:33.549Z,88.99
2018-12-19T03:30:37.108Z,88.37
2018-12-19T03:35:40.829Z,87.58
2018-12-19T03:40:44.245Z,87.35
2018-12-19T03:45:47.746Z,87.93
2018-12-19T03:50:51.332Z,88.21
2018-12-19T03:55:54.796Z,87.71
2018-12-19T04:00:58.307Z,87.95
2018-12-19T04:06:01.752Z,88.34
2018-12-19T04:11:05.171Z,87.19
2018-12-19T04:16:08.585Z,87.74
2018-12-19T04:21:12.268Z,87.81
2018-12-19T04:26:15.689Z,88.10
2018-12-19T04:31:19.275Z,88.84
2018-12-19T04:36:22.676Z,87.35
2018-12-19T04:41:26.368Z,88.64
2018-12-19T04:46:29.836Z,87.86
2018-12-19T04:51:33.476Z,87.61
2018-12-19T04:56:36.968Z,88.44
2018-12-19T05:01:40.511Z,89.37
2018-12-19T05:06:43.911Z,88.72
2018-12-19T05:11:47.780Z,90.13
2018-12-19T05:16:51.321Z,89.71
2018-12-19T05:21:55.005Z,90.27
2018-12-19T05:26:58.516Z,89.52
2018-12-19T05:32:01.984Z,90.54
2018-12-19T05:37:05.627Z,89.68
2018-12-19T05:42:09.268Z,89.31
2018-12-19T05:47:13.144Z,90.60
2018-12-19T05:52:16.709Z,90.54
2018-12-19T05:57:20.436Z,90.42
2018-12-19T06:02:23.988Z,90.21
2018-12-19T06:07:27.613Z,90.09
2018-12-19T06:12:31.205Z,91.04
2018-12-19T06:17:34.724Z,90.73
2018-12-19T06:22:38.504Z,90.76
2018-12-19T06:27:42.061Z,91.21
2018-12-19T06:32:45.861Z,90.70
2018-12-19T06:37:49.460Z,90.78
2018-12-19T06:42:52.936Z,90.98
2018-12-19T06:47:56.449Z,90.89
2018-12-19T06:52:59.860Z,91.20
2018-12-19T06:58:03.268Z,91.40
2018-12-19T07:03:06.686Z,91.23
2018-12-19T07:08:10.099Z,91.27
2018-12-19T07:13:13.633Z,90.89
2018-12-19T07:18:17.104Z,90.75
2018-12-19T07:23:20.736Z,90.21
2018-12-19T07:28:24.200Z,91.07
2018-12-19T07:33:27.748Z,90.64
2018-12-19T07:38:31.276Z,91.15
2018-12-19T07:43:34.788Z,90.66
2018-12-19T07:48:38.528Z,90.84
2018-12-19T07:53:42.024Z,90.73
2018-12-19T07:58:45.596Z,90.67
2018-12-19T08:03:49.005Z,91.02
2018-12-19T08:08:52.620Z,91.14
2018-12-19T08:13:56.310Z,90.94
2018-12-19T08:18:59.789Z,91.09
2018-12-19T08:24:03.580Z,90.57
2018-12-19T08:29:07.130Z,91.24
2018-12-19T08:34:10.651Z,90.83
2018-12-19T08:39:14.487Z,90.87
2018-12-19T08:44:17.916Z,91.22
2018-12-19T08:49:21.329Z,91.21
2018-12-19T08:54:25.028Z,91.53
2018-12-19T08:59:28.681Z,91.19
2018-12-19T09:04:32.303Z,91.23
2018-12-19T09:09:35.717Z,90.89
2018-12-19T09:14:39.167Z,90.96
2018-12-19T09:19:42.800Z,91.42
2018-12-19T09:24:46.251Z,91.53
2018-12-19T09:29:49.711Z,90.95
2018-12-19T09:34:53.130Z,91.21
2018-12-19T09:39:56.575Z,91.08
2018-12-19T09:44:59.975Z,91.02
2018-12-19T09:50:04.088Z,90.89
2018-12-19T09:55:07.620Z,90.22
2018-12-19T10:00:17.484Z,90.52
2018-12-19T10:05:20.980Z,91.17
2018-12-19T10:10:24.477Z,90.95
2018-12-19T10:15:28.056Z,91.61
2018-12-19T10:20:31.516Z,90.69
2018-12-19T10:25:35.188Z,90.35
2018-12-19T10:30:47.095Z,90.44
2018-12-19T10:35:51.348Z,90.56
2018-12-19T10:40:54.763Z,91.29
2018-12-19T10:45:58.308Z,90.49
2018-12-19T10:51:01.713Z,90.60
2018-12-19T10:56:05.292Z,90.32
2018-12-19T11:01:09.004Z,90.39
2018-12-19T11:06:12.480Z,90.25
2018-12-19T11:11:15.984Z,90.22
2018-12-19T11:16:19.476Z,90.68
2018-12-19T11:21:23.000Z,90.29
2018-12-19T11:26:27.659Z,90.76
2018-12-19T11:31:31.156Z,90.66
2018-12-19T11:36:34.668Z,89.68
2018-12-19T11:41:39.229Z,89.76
2018-12-19T11:46:42.980Z,89.24
2018-12-19T11:51:46.401Z,90.02
2018-12-19T11:56:49.859Z,89.04
2018-12-19T12:01:53.432Z,89.05
2018-12-19T12:06:56.844Z,88.58
2018-12-19T12:12:00.287Z,89.40
2018-12-19T12:17:03.711Z,88.93
2018-12-19T12:22:07.284Z,88.60
2018-12-19T12:27:11.000Z,87.48
2018-12-19T12:32:14.551Z,87.55
2018-12-19T12:37:18.020Z,87.21
2018-12-19T12:42:21.640Z,87.64
2018-12-19T12:47:25.652Z,87.03
2018-12-19T12:52:29.132Z,86.66
2018-12-19T12:57:32.761Z,86.03
2018-12-19T13:02:36.224Z,86.98
2018-12-19T13:07:39.780Z,87.06
2018-12-19T13:12:43.461Z,87.44
2018-12-19T13:17:47.579Z,87.48
2018-12-19T13:22:51.420Z,87.44
2018-12-19T13:27:55.679Z,86.87
2018-12-19T13:32:59.104Z,86.80
2018-12-19T13:38:02.704Z,87.39
2018-12-19T13:43:06.382Z,87.12
2018-12-19T13:48:11.099Z,87.92
2018-12-19T13:53:14.579Z,87.91
2018-12-19T13:58:19.076Z,88.55
2018-12-19T14:03:22.801Z,88.51
2018-12-19T14:08:26.613Z,89.34
2018-12-19T14:13:30.289Z,89.51
2018-12-19T14:18:33.748Z,89.46
2018-12-19T14:23:37.256Z,89.33
2018-12-19T14:28:40.996Z,89.60
2018-12-19T14:33:44.881Z,90.17
2018-12-19T14:38:48.624Z,89.48
2018-12-19T14:43:52.135Z,90.45
2018-12-19T14:48:55.863Z,90.84
2018-12-19T14:53:59.416Z,90.72
2018-12-19T14:59:02.840Z,91.29
2018-12-19T15:04:06.317Z,90.84
2018-12-19T15:09:09.816Z,90.68
2018-12-19T15:14:13.392Z,91.47
2018-12-19T15:19:16.952Z,90.92
2018-12-19T15:24:20.540Z,91.27
2018-12-19T15:29:24.384Z,91.33
2018-12-19T15:34:27.988Z,91.97
2018-12-19T15:39:31.392Z,92.29
2018-12-19T15:44:34.943Z,91.74
2018-12-19T15:49:38.372Z,92.45
2018-12-19T15:54:41.928Z,92.13
2018-12-19T15:59:45.452Z,92.27
2018-12-19T16:04:48.956Z,92.71
2018-12-19T16:09:52.389Z,92.46
2018-12-19T16:14:55.904Z,92.77
2018-12-19T16:19:59.420Z,92.73
2018-12-19T16:25:02.973Z,92.42
2018-12-19T16:30:08.044Z,92.98
2018-12-19T16:35:11.466Z,92.91
2018-12-19T16:40:15.124Z,92.99
2018-12-19T16:45:18.532Z,93.27
2018-12-19T16:50:22.052Z,93.78
2018-12-19T16:55:25.468Z,94.49
2018-12-19T17:00:28.877Z,94.37
2018-12-19T17:05:32.435Z,94.56
2018-12-19T17:10:35.851Z,94.05
2018-12-19T17:15:39.328Z,94.40
2018-12-19T17:20:42.736Z,94.18
2018-12-19T17:25:47.761Z,93.76
2018-12-19T17:30:51.491Z,93.71
2018-12-19T17:35:54.997Z,93.69
2018-12-19T17:40:58.413Z,94.49
2018-12-19T17:46:01.812Z,94.16
2018-12-19T17:51:05.340Z,94.26
2018-12-19T17:56:08.773Z,93.96
2018-12-19T18:01:12.532Z,94.91
2018-12-19T18:06:15.932Z,95.23
2018-12-19T18:11:19.404Z,94.66
2018-12-19T18:16:22.885Z,95.32
2018-12-19T18:21:26.480Z,94.89
2018-12-19T18:26:30.011Z,95.04
2018-12-19T18:31:33.495Z,95.30
2018-12-19T18:36:36.900Z,95.44
2018-12-19T18:41:40.503Z,94.51
2018-12-19T18:46:43.956Z,94.97
2018-12-19T18:51:47.582Z,94.64
2018-12-19T18:56:51.420Z,94.50
2018-12-19T19:01:54.978Z,94.44
2018-12-19T19:06:58.571Z,94.26
2018-12-19T19:12:02.199Z,94.06
2018-12-19T19:17:06.380Z,94.17
2018-12-19T19:22:10.540Z,94.38
2018-12-19T19:27:14.077Z,93.97
2018-12-19T19:32:18.794Z,94.08
2018-12-19T19:37:22.480Z,93.47
2018-12-19T19:42:26.066Z,93.44
2018-12-19T19:47:29.648Z,93.66
2018-12-19T19:52:33.199Z,93.67
2018-12-19T19:57:36.708Z,93.50
2018-12-19T20:02:40.857Z,93.49
2018-12-19T20:07:44.289Z,93.35
2018-12-19T20:12:48.059Z,93.52
2018-12-19T20:17:51.965Z,93.96
2018-12-19T20:22:55.384Z,93.96
2018-12-19T20:27:59.821Z,93.86
2018-12-19T20:33:08.073Z,93.84
2018-12-19T20:38:11.748Z,94.42
2018-12-19T20:43:15.197Z,94.41
2018-12-19T20:48:28.261Z,94.64
2018-12-19T20:53:32.509Z,94.61
2018-12-19T20:58:36.016Z,94.15
2018-12-19T21:03:39.688Z,94.48
2018-12-19T21:08:43.100Z,94.09
2018-12-19T21:13:46.994Z,94.40
2018-12-19T21:18:52.394Z,94.58
2018-12-19T21:23:55.899Z,94.71
2018-12-19T21:28:59.500Z,94.82
2018-12-19T21:34:03.036Z,94.28
2018-12-19T21:39:09.751Z,94.85
2018-12-19T21:44:13.492Z,94.42
2018-12-19T21:49:17.856Z,95.23
2018-12-19T21:54:21.367Z,95.02
2018-12-19T21:59:25.453Z,95.59
2018-12-19T22:04:28.998Z,95.00
2018-12-19T22:09:32.765Z,94.61
2018-12-19T22:14:36.618Z,95.26
2018-12-19T22:19:40.336Z,94.55
2018-12-19T22:24:43.879Z,94.94
2018-12-19T22:29:47.500Z,94.98
2018-12-19T22:34:51.281Z,94.72
2018-12-19T22:39:55.071Z,94.92
2018-12-19T22:44:58.605Z,94.48
2018-12-19T22:50:03.125Z,95.33
2018-12-19T22:55:06.754Z,95.07
2018-12-19T23:00:16.903Z,95.22
2018-12-19T23:05:25.835Z,95.41
2018-12-19T23:10:30.043Z,95.97
2018-12-19T23:15:33.653Z,95.84
2018-12-19T23:20:37.201Z,95.50
2018-12-19T23:25:40.792Z,95.65
2018-12-19T23:30:44.405Z,95.75
2018-12-19T23:35:48.370Z,95.95
2018-12-19T23:40:52.201Z,96.43
2018-12-19T23:45:55.694Z,96.05
2018-12-19T23:50:59.207Z,96.60
2018-12-19T23:56:02.772Z,96.24
